Time;durP1;ratioP1;P1;durP2;ratioP2;P2;SDS_P1;SDS_P2;PMS_P1;PMS_P2;Temp;Humidity;BMP_temperature;BMP_pressure;BME280_temperature;BME280_humidity;BME280_pressure;Samples;Min_cycle;Max_cycle;Signal;HPM_P1;HPM_P2
2022/07/20 00:00:03;;;;;;;2.65;1.83;;;;;;;;;;5080235;27;91707;-63
2022/07/20 00:02:29;;;;;;;2.75;1.50;;;;;;;;;;5075730;27;94696;-63
2022/07/20 00:04:55;;;;;;;1.60;1.50;;;;;;;;;;5078806;27;92378;-63
2022/07/20 00:07:22;;;;;;;2.88;1.90;;;;;;;;;;5094639;27;94907;-63
2022/07/20 00:12:33;;;;;;;2.05;1.85;;;;;;;;;;5096983;27;92391;-63
2022/07/20 00:15:00;;;;;;;1.50;1.40;;;;;;;;;;5095649;27;93658;-63
2022/07/20 00:17:26;;;;;;;2.33;1.42;;;;;;;;;;5075159;27;93486;-63
2022/07/20 00:19:52;;;;;;;1.73;1.63;;;;;;;;;;5075781;27;92381;-63
2022/07/20 00:22:18;;;;;;;1.63;1.52;;;;;;;;;;5078328;27;93161;-63
2022/07/20 00:24:45;;;;;;;3.63;1.40;;;;;;;;;;5076180;27;91736;-63
2022/07/20 00:27:11;;;;;;;3.20;1.60;;;;;;;;;;5057539;27;92385;-63
2022/07/20 00:29:37;;;;;;;1.98;1.75;;;;;;;;;;5057431;27;93643;-63
2022/07/20 00:32:04;;;;;;;1.92;1.63;;;;;;;;;;5074093;27;94854;-63
2022/07/20 00:34:30;;;;;;;1.90;1.50;;;;;;;;;;5075263;27;95818;-63
2022/07/20 00:36:56;;;;;;;2.75;1.88;;;;;;;;;;5075076;27;94768;-63
2022/07/20 00:39:23;;;;;;;1.65;1.50;;;;;;;;;;5075325;27;92524;-63
2022/07/20 00:41:49;;;;;;;1.65;1.55;;;;;;;;;;5076674;27;92991;-64
2022/07/20 00:44:21;;;;;;;1.98;1.45;;;;;;;;;;5098655;27;93494;-63
2022/07/20 00:46:47;;;;;;;1.73;1.60;;;;;;;;;;5080046;27;94466;-63
2022/07/20 00:49:14;;;;;;;2.72;1.63;;;;;;;;;;5075189;27;92142;-63
2022/07/20 00:51:41;;;;;;;3.33;1.45;;;;;;;;;;5075588;27;92444;-62
2022/07/20 00:54:08;;;;;;;2.92;1.80;;;;;;;;;;5075437;27;93146;-63
2022/07/20 00:56:35;;;;;;;1.70;1.60;;;;;;;;;;5073978;27;96216;-63
2022/07/20 00:59:05;;;;;;;2.08;1.90;;;;;;;;;;5075113;27;92530;-63
2022/07/20 01:01:32;;;;;;;2.30;1.70;;;;;;;;;;5057251;27;92644;-63
2022/07/20 01:03:58;;;;;;;2.17;1.52;;;;;;;;;;5074873;27;94841;-63
2022/07/20 01:06:25;;;;;;;1.70;1.60;;;;;;;;;;5078656;27;92373;-63
2022/07/20 01:08:51;;;;;;;2.45;1.58;;;;;;;;;;5074657;27;93533;-63
2022/07/20 01:11:19;;;;;;;1.90;1.70;;;;;;;;;;5074918;27;92456;-63
2022/07/20 01:13:45;;;;;;;2.28;2.00;;;;;;;;;;5075546;27;93172;-63
2022/07/20 01:16:12;;;;;;;2.75;1.88;;;;;;;;;;5074840;27;93697;-64
2022/07/20 01:18:39;;;;;;;2.90;1.80;;;;;;;;;;5075283;27;92519;-63
2022/07/20 01:21:08;;;;;;;1.65;1.55;;;;;;;;;;5073205;27;94764;-63
2022/07/20 01:23:34;;;;;;;2.70;2.00;;;;;;;;;;5074856;27;93679;-62
2022/07/20 01:26:01;;;;;;;3.65;1.98;;;;;;;;;;5074682;27;92480;-63
2022/07/20 01:28:27;;;;;;;1.80;1.70;;;;;;;;;;5077440;27;92871;-63
2022/07/20 01:30:54;;;;;;;4.68;1.80;;;;;;;;;;5075228;27;92409;-63
2022/07/20 01:33:20;;;;;;;1.63;1.52;;;;;;;;;;5074597;27;93005;-64
2022/07/20 01:35:46;;;;;;;1.98;1.73;;;;;;;;;;5074346;27;93471;-63
2022/07/20 01:38:13;;;;;;;2.03;1.90;;;;;;;;;;5075288;27;91687;-63
2022/07/20 01:40:39;;;;;;;3.08;2.13;;;;;;;;;;5074782;27;92418;-63
2022/07/20 01:43:05;;;;;;;2.25;2.05;;;;;;;;;;5074699;27;94818;-64
2022/07/20 01:45:32;;;;;;;2.05;1.77;;;;;;;;;;5072622;27;95354;-63
2022/07/20 01:47:58;;;;;;;3.05;1.90;;;;;;;;;;5077374;27;95796;-63
2022/07/20 01:50:24;;;;;;;3.88;2.25;;;;;;;;;;5076732;27;92384;-64
2022/07/20 01:52:51;;;;;;;2.47;2.00;;;;;;;;;;5077878;27;93553;-63
2022/07/20 01:55:17;;;;;;;1.98;1.88;;;;;;;;;;5077545;27;93322;-63
2022/07/20 01:57:43;;;;;;;3.15;2.25;;;;;;;;;;5078193;27;92368;-63
2022/07/20 02:00:11;;;;;;;2.88;2.20;;;;;;;;;;5078347;27;94990;-63
2022/07/20 02:02:46;;;;;;;1.73;1.63;;;;;;;;;;5078709;27;93761;-63
2022/07/20 02:05:13;;;;;;;2.28;1.70;;;;;;;;;;5077604;27;93600;-63
2022/07/20 02:07:39;;;;;;;2.05;1.80;;;;;;;;;;5059765;27;93196;-63
2022/07/20 02:10:06;;;;;;;2.05;1.88;;;;;;;;;;5079207;27;96230;-63
2022/07/20 02:12:33;;;;;;;2.10;2.00;;;;;;;;;;5077427;27;95600;-63
2022/07/20 02:14:59;;;;;;;2.22;2.05;;;;;;;;;;5077743;27;93924;-63
2022/07/20 02:17:26;;;;;;;2.58;2.05;;;;;;;;;;5077512;27;92470;-63
2022/07/20 02:19:52;;;;;;;1.90;1.80;;;;;;;;;;5077499;27;93489;-63
2022/07/20 02:22:18;;;;;;;4.13;1.88;;;;;;;;;;5077642;27;93879;-63
2022/07/20 02:24:45;;;;;;;2.45;2.25;;;;;;;;;;5077920;27;92448;-63
2022/07/20 02:27:11;;;;;;;2.20;2.00;;;;;;;;;;5077391;27;93213;-63
2022/07/20 02:29:37;;;;;;;2.97;2.00;;;;;;;;;;5077258;27;93496;-64
2022/07/20 02:32:04;;;;;;;2.30;2.10;;;;;;;;;;5081213;27;92377;-63
2022/07/20 02:34:30;;;;;;;2.05;1.95;;;;;;;;;;5057694;27;96835;-63
2022/07/20 02:36:56;;;;;;;4.82;2.30;;;;;;;;;;5077177;27;92482;-63
2022/07/20 02:39:23;;;;;;;2.70;1.90;;;;;;;;;;5077869;27;92431;-63
2022/07/20 02:41:49;;;;;;;2.17;2.00;;;;;;;;;;5058841;27;93665;-63
2022/07/20 02:44:15;;;;;;;2.40;2.00;;;;;;;;;;5077325;27;92273;-63
2022/07/20 02:46:42;;;;;;;2.28;2.08;;;;;;;;;;5077203;27;93859;-63
2022/07/20 02:49:08;;;;;;;3.15;2.05;;;;;;;;;;5077042;27;93427;-64
2022/07/20 02:51:34;;;;;;;3.45;2.08;;;;;;;;;;5078038;27;91706;-63
2022/07/20 02:54:01;;;;;;;2.97;2.28;;;;;;;;;;5080361;27;93970;-63
2022/07/20 02:56:27;;;;;;;2.50;2.10;;;;;;;;;;5077411;27;92479;-63
2022/07/20 02:58:53;;;;;;;3.33;2.10;;;;;;;;;;5075410;27;94741;-63
2022/07/20 03:01:20;;;;;;;2.53;1.90;;;;;;;;;;5077243;27;93604;-63
2022/07/20 03:03:46;;;;;;;2.15;2.05;;;;;;;;;;5076632;27;92455;-63
2022/07/20 03:06:12;;;;;;;2.83;2.30;;;;;;;;;;5076871;27;93065;-63
2022/07/20 03:08:39;;;;;;;2.60;2.08;;;;;;;;;;5076643;27;93518;-63
2022/07/20 03:11:05;;;;;;;2.20;2.00;;;;;;;;;;5076827;27;92462;-63
2022/07/20 03:13:31;;;;;;;4.50;1.83;;;;;;;;;;5077131;27;94534;-63
2022/07/20 03:15:58;;;;;;;2.20;1.92;;;;;;;;;;5080119;27;92753;-62
2022/07/20 03:18:24;;;;;;;2.00;1.90;;;;;;;;;;5058997;27;93815;-63
2022/07/20 03:20:51;;;;;;;2.00;1.88;;;;;;;;;;5076583;27;93315;-63
2022/07/20 03:23:17;;;;;;;2.03;1.80;;;;;;;;;;5074683;27;94846;-65
2022/07/20 03:25:43;;;;;;;2.58;2.00;;;;;;;;;;5076740;27;96708;-63
2022/07/20 03:28:10;;;;;;;3.38;2.35;;;;;;;;;;5076272;27;93898;-63
2022/07/20 03:30:36;;;;;;;3.22;2.22;;;;;;;;;;5076986;27;92485;-63
2022/07/20 03:33:02;;;;;;;4.45;2.25;;;;;;;;;;5077280;27;94417;-63
2022/07/20 03:35:29;;;;;;;2.00;1.90;;;;;;;;;;5076490;27;94626;-63
2022/07/20 03:37:55;;;;;;;2.38;2.08;;;;;;;;;;5079219;27;92395;-63
2022/07/20 03:40:22;;;;;;;2.42;2.20;;;;;;;;;;5076363;27;92590;-63
2022/07/20 03:42:48;;;;;;;2.63;2.05;;;;;;;;;;5076195;27;92442;-63
2022/07/20 03:45:14;;;;;;;2.08;1.95;;;;;;;;;;5076351;27;93159;-63
2022/07/20 03:47:40;;;;;;;2.40;2.20;;;;;;;;;;5074297;27;96161;-63
2022/07/20 03:50:07;;;;;;;2.58;2.10;;;;;;;;;;5075864;27;92370;-63
2022/07/20 03:52:33;;;;;;;2.25;2.10;;;;;;;;;;5076259;27;93605;-63
2022/07/20 03:55:00;;;;;;;2.63;2.25;;;;;;;;;;5075947;27;93415;-63
2022/07/20 03:57:27;;;;;;;2.90;2.30;;;;;;;;;;5079073;27;92491;-63
2022/07/20 03:59:53;;;;;;;2.38;2.17;;;;;;;;;;5075663;27;93480;-62
2022/07/20 04:02:20;;;;;;;2.78;2.22;;;;;;;;;;5075779;27;92543;-63
2022/07/20 04:04:46;;;;;;;6.45;2.60;;;;;;;;;;5076821;27;94106;-63
2022/07/20 04:07:13;;;;;;;3.03;2.63;;;;;;;;;;5076087;27;97065;-63
2022/07/20 04:09:45;;;;;;;4.75;2.97;;;;;;;;;;5076083;27;92451;-63
2022/07/20 04:12:13;;;;;;;2.72;2.53;;;;;;;;;;5073980;27;94708;-63
2022/07/20 04:14:40;;;;;;;4.60;2.70;;;;;;;;;;5075465;27;93491;-63
2022/07/20 04:17:07;;;;;;;2.63;2.42;;;;;;;;;;5076079;27;92425;-63
2022/07/20 04:19:34;;;;;;;4.47;2.60;;;;;;;;;;5078668;27;93180;-64
2022/07/20 04:22:00;;;;;;;2.72;2.47;;;;;;;;;;5075666;27;92438;-63
2022/07/20 04:24:27;;;;;;;3.70;2.33;;;;;;;;;;5075462;27;92895;-63
2022/07/20 04:26:53;;;;;;;3.80;3.40;;;;;;;;;;5075199;27;93957;-62
2022/07/20 04:29:21;;;;;;;3.40;2.72;;;;;;;;;;5075977;27;91742;-63
2022/07/20 04:31:47;;;;;;;3.95;3.20;;;;;;;;;;5075649;27;92476;-63
2022/07/20 04:34:13;;;;;;;2.88;2.60;;;;;;;;;;5075161;27;92370;-63
2022/07/20 04:36:40;;;;;;;4.38;3.30;;;;;;;;;;5073204;27;94833;-63
2022/07/20 04:39:06;;;;;;;4.15;3.17;;;;;;;;;;5075865;27;96699;-62
2022/07/20 04:41:32;;;;;;;4.55;3.75;;;;;;;;;;5078265;27;93374;-63
2022/07/20 04:43:59;;;;;;;5.10;3.60;;;;;;;;;;5075438;27;93303;-63
2022/07/20 04:46:25;;;;;;;5.05;4.22;;;;;;;;;;5075522;27;93297;-64
2022/07/20 04:48:52;;;;;;;5.28;3.63;;;;;;;;;;5075098;27;92465;-63
2022/07/20 04:51:18;;;;;;;4.15;3.78;;;;;;;;;;5075296;27;93093;-63
2022/07/20 04:53:45;;;;;;;5.97;3.95;;;;;;;;;;5075703;27;92749;-63
2022/07/20 04:56:11;;;;;;;6.70;4.20;;;;;;;;;;5075736;27;92483;-63
2022/07/20 04:58:38;;;;;;;4.18;3.72;;;;;;;;;;5057151;27;93202;-63
2022/07/20 05:01:04;;;;;;;3.95;3.55;;;;;;;;;;5073698;27;97047;-63
2022/07/20 05:03:30;;;;;;;5.55;3.53;;;;;;;;;;5078210;27;92372;-63
2022/07/20 05:05:57;;;;;;;4.22;3.83;;;;;;;;;;5074986;27;92514;-64
2022/07/20 05:08:23;;;;;;;4.13;3.67;;;;;;;;;;5075085;27;92467;-63
2022/07/20 05:10:50;;;;;;;7.38;4.03;;;;;;;;;;5075265;27;92984;-63
2022/07/20 05:13:16;;;;;;;5.05;3.90;;;;;;;;;;5056660;27;93753;-63
2022/07/20 05:15:42;;;;;;;4.05;3.65;;;;;;;;;;5075249;27;92445;-63
2022/07/20 05:18:09;;;;;;;5.07;3.90;;;;;;;;;;5075356;27;93202;-64
2022/07/20 05:20:35;;;;;;;7.60;4.50;;;;;;;;;;5074724;27;93520;-63
2022/07/20 05:23:01;;;;;;;5.53;4.22;;;;;;;;;;5075236;27;92423;-63
2022/07/20 05:25:27;;;;;;;5.72;4.20;;;;;;;;;;5078567;27;95128;-63
2022/07/20 05:27:55;;;;;;;7.13;4.03;;;;;;;;;;5078312;27;92388;-63
2022/07/20 05:30:21;;;;;;;6.07;4.63;;;;;;;;;;5078795;27;94046;-63
2022/07/20 05:32:48;;;;;;;5.32;4.82;;;;;;;;;;5078491;27;93593;-63
2022/07/20 05:35:14;;;;;;;6.25;5.38;;;;;;;;;;5078256;27;92424;-63
2022/07/20 05:37:40;;;;;;;4.78;4.32;;;;;;;;;;5077897;27;93186;-63
2022/07/20 05:40:07;;;;;;;7.32;5.38;;;;;;;;;;5077875;27;93368;-63
2022/07/20 05:42:33;;;;;;;8.48;5.28;;;;;;;;;;5079166;27;91959;-63
2022/07/20 05:44:59;;;;;;;9.65;5.70;;;;;;;;;;5078997;27;93226;-63
2022/07/20 05:47:26;;;;;;;12.18;6.05;;;;;;;;;;5081133;27;93906;-63
2022/07/20 05:49:52;;;;;;;8.00;5.53;;;;;;;;;;5058606;27;95126;-63
2022/07/20 05:52:19;;;;;;;9.95;5.70;;;;;;;;;;5077835;27;93347;-63
2022/07/20 05:54:45;;;;;;;9.68;5.95;;;;;;;;;;5078020;27;92448;-63
2022/07/20 05:57:11;;;;;;;7.53;6.18;;;;;;;;;;5077744;27;93056;-63
2022/07/20 05:59:39;;;;;;;7.70;6.40;;;;;;;;;;5077922;27;93262;-63
2022/07/20 06:02:05;;;;;;;9.90;6.25;;;;;;;;;;5078031;27;92392;-63
2022/07/20 06:04:31;;;;;;;9.77;7.70;;;;;;;;;;5078388;27;92458;-63
2022/07/20 06:06:58;;;;;;;8.32;6.50;;;;;;;;;;5081198;27;92570;-63
2022/07/20 06:09:24;;;;;;;10.82;7.35;;;;;;;;;;5078426;27;93509;-63
2022/07/20 06:11:51;;;;;;;13.32;7.93;;;;;;;;;;5077553;27;93618;-63
2022/07/20 06:14:18;;;;;;;9.90;8.07;;;;;;;;;;5076847;27;94975;-63
2022/07/20 06:16:44;;;;;;;13.30;8.18;;;;;;;;;;5078442;27;94443;-63
2022/07/20 06:19:10;;;;;;;10.90;7.43;;;;;;;;;;5077323;27;93414;-63
2022/07/20 06:21:37;;;;;;;10.60;8.88;;;;;;;;;;5078036;27;92660;-63
2022/07/20 06:24:04;;;;;;;12.65;8.18;;;;;;;;;;5077433;27;93269;-63
2022/07/20 06:26:30;;;;;;;10.02;8.20;;;;;;;;;;5077700;27;93359;-62
2022/07/20 06:28:56;;;;;;;14.98;9.43;;;;;;;;;;5080137;27;92394;-63
2022/07/20 06:31:23;;;;;;;11.95;9.13;;;;;;;;;;5077887;27;92581;-63
2022/07/20 06:34:10;;;;;;;14.30;10.43;;;;;;;;;;5077734;27;92424;-62
2022/07/20 06:36:36;;;;;;;14.73;9.50;;;;;;;;;;5075482;27;95163;-63
2022/07/20 06:39:03;;;;;;;14.48;10.02;;;;;;;;;;5075662;27;97092;-63
2022/07/20 06:41:29;;;;;;;16.58;10.13;;;;;;;;;;5076787;27;92453;-63
2022/07/20 06:43:55;;;;;;;15.38;10.13;;;;;;;;;;5076430;27;93621;-63
2022/07/20 06:46:22;;;;;;;15.30;10.23;;;;;;;;;;5058896;27;94113;-63
2022/07/20 06:48:48;;;;;;;16.65;10.52;;;;;;;;;;5076715;27;92491;-63
2022/07/20 06:51:15;;;;;;;15.05;9.43;;;;;;;;;;5079181;27;93711;-63
2022/07/20 06:53:42;;;;;;;16.38;11.07;;;;;;;;;;5077418;27;92446;-63
2022/07/20 06:56:08;;;;;;;15.43;10.43;;;;;;;;;;5076967;27;93607;-63
2022/07/20 06:58:34;;;;;;;16.75;11.68;;;;;;;;;;5075936;27;93787;-63
2022/07/20 07:01:01;;;;;;;17.05;11.55;;;;;;;;;;5076611;27;92376;-63
2022/07/20 07:03:27;;;;;;;16.80;11.40;;;;;;;;;;5074712;27;94797;-64
2022/07/20 07:06:01;;;;;;;16.77;12.27;;;;;;;;;;5076005;27;92452;-63
2022/07/20 07:08:27;;;;;;;15.38;12.20;;;;;;;;;;5075974;27;92415;-63
2022/07/20 07:10:53;;;;;;;18.10;12.25;;;;;;;;;;5076598;27;94384;-63
2022/07/20 07:13:20;;;;;;;17.13;12.18;;;;;;;;;;5061272;27;93796;-63
2022/07/20 07:15:46;;;;;;;19.35;11.70;;;;;;;;;;5076546;27;94782;-63
2022/07/20 07:18:12;;;;;;;19.58;12.93;;;;;;;;;;5057626;27;92390;-63
2022/07/20 07:20:39;;;;;;;19.10;12.68;;;;;;;;;;5076464;27;91720;-63
2022/07/20 07:23:05;;;;;;;18.63;13.07;;;;;;;;;;5075470;27;92546;-63
2022/07/20 07:25:31;;;;;;;17.67;12.60;;;;;;;;;;5075482;27;93500;-63
2022/07/20 07:27:58;;;;;;;18.23;12.70;;;;;;;;;;5074302;27;94809;-63
2022/07/20 07:30:24;;;;;;;19.23;12.90;;;;;;;;;;5075855;27;95625;-63
2022/07/20 07:32:50;;;;;;;20.45;13.27;;;;;;;;;;5075512;27;92337;-63
2022/07/20 07:35:16;;;;;;;20.38;13.32;;;;;;;;;;5079081;27;92751;-63
2022/07/20 07:37:43;;;;;;;17.00;12.63;;;;;;;;;;5075428;27;93987;-63
2022/07/20 07:40:10;;;;;;;20.27;12.45;;;;;;;;;;5075474;27;92838;-63
2022/07/20 07:42:36;;;;;;;21.48;12.75;;;;;;;;;;5075703;27;93753;-63
2022/07/20 07:45:06;;;;;;;17.42;12.13;;;;;;;;;;5076406;27;92025;-63
2022/07/20 07:47:33;;;;;;;16.02;12.07;;;;;;;;;;5056284;27;92462;-63
2022/07/20 07:49:59;;;;;;;17.38;12.20;;;;;;;;;;5075271;27;93509;-63
2022/07/20 07:52:26;;;;;;;16.50;12.68;;;;;;;;;;5073196;27;95889;-63
2022/07/20 07:54:52;;;;;;;17.00;12.30;;;;;;;;;;5075293;27;92434;-63
2022/07/20 07:57:18;;;;;;;15.40;11.25;;;;;;;;;;5078728;27;94378;-63
2022/07/20 07:59:45;;;;;;;16.65;12.13;;;;;;;;;;5075745;27;92498;-63
2022/07/20 08:02:11;;;;;;;16.65;11.43;;;;;;;;;;5075355;27;93245;-63
2022/07/20 08:04:37;;;;;;;14.40;11.82;;;;;;;;;;5074546;27;93438;-63
2022/07/20 08:07:04;;;;;;;16.17;11.95;;;;;;;;;;5057539;27;92540;-64
2022/07/20 08:09:30;;;;;;;18.38;12.05;;;;;;;;;;5057580;27;93699;-63
2022/07/20 08:11:56;;;;;;;15.68;11.02;;;;;;;;;;5075482;27;94400;-63
2022/07/20 08:14:23;;;;;;;14.05;11.32;;;;;;;;;;5075161;27;92430;-63
2022/07/20 08:16:49;;;;;;;17.10;11.98;;;;;;;;;;5076727;27;94819;-63
2022/07/20 08:19:15;;;;;;;15.27;11.38;;;;;;;;;;5074480;27;92423;-63
2022/07/20 08:21:42;;;;;;;15.80;11.05;;;;;;;;;;5074946;27;93159;-63
2022/07/20 08:24:08;;;;;;;16.92;11.48;;;;;;;;;;5075219;27;94506;-63
2022/07/20 08:26:34;;;;;;;15.45;10.95;;;;;;;;;;5075292;27;92418;-63
2022/07/20 08:29:01;;;;;;;17.08;11.05;;;;;;;;;;5074545;27;92422;-64
2022/07/20 08:31:35;;;;;;;14.57;11.35;;;;;;;;;;5074717;27;93421;-63
2022/07/20 08:34:01;;;;;;;16.27;11.23;;;;;;;;;;5074973;27;91628;-63
2022/07/20 08:36:27;;;;;;;18.92;10.40;;;;;;;;;;5074967;27;94805;-62
2022/07/20 08:38:54;;;;;;;18.35;11.77;;;;;;;;;;5078054;27;93523;-63
2022/07/20 08:41:21;;;;;;;16.98;11.25;;;;;;;;;;5073533;27;94742;-63
2022/07/20 08:43:47;;;;;;;15.75;10.68;;;;;;;;;;5074284;27;93649;-62
2022/07/20 08:46:14;;;;;;;16.70;11.23;;;;;;;;;;5075445;27;92500;-62
2022/07/20 08:48:41;;;;;;;16.13;10.75;;;;;;;;;;5074492;27;93283;-63
2022/07/20 08:51:08;;;;;;;15.38;10.50;;;;;;;;;;5074441;27;93559;-63
2022/07/20 08:53:34;;;;;;;14.65;10.18;;;;;;;;;;5056405;27;92522;-63
2022/07/20 08:56:07;;;;;;;18.20;10.43;;;;;;;;;;5057845;27;94411;-63
2022/07/20 08:58:34;;;;;;;17.05;10.55;;;;;;;;;;5076005;27;92662;-63
2022/07/20 09:01:00;;;;;;;13.88;9.85;;;;;;;;;;5081588;27;92381;-63
2022/07/20 09:03:26;;;;;;;14.25;10.40;;;;;;;;;;5078354;27;93777;-63
2022/07/20 09:06:05;;;;;;;13.52;9.80;;;;;;;;;;5076479;27;94830;-63
2022/07/20 09:08:32;;;;;;;14.70;9.60;;;;;;;;;;5078673;27;95713;-63
2022/07/20 09:11:00;;;;;;;12.38;9.95;;;;;;;;;;5078847;27;92950;-63
2022/07/20 09:13:28;;;;;;;14.15;10.13;;;;;;;;;;5078244;27;92479;-63
2022/07/20 09:15:56;;;;;;;12.52;9.98;;;;;;;;;;5078156;27;92401;-63
2022/07/20 09:18:29;;;;;;;15.20;9.65;;;;;;;;;;5077487;27;93428;-63
2022/07/20 09:21:00;;;;;;;15.20;10.23;;;;;;;;;;5078520;27;92441;-63
2022/07/20 09:23:27;;;;;;;12.98;9.60;;;;;;;;;;5081253;27;93497;-63
2022/07/20 09:25:59;;;;;;;12.68;9.43;;;;;;;;;;5078566;27;92468;-63
2022/07/20 09:28:34;;;;;;;13.45;9.32;;;;;;;;;;5078790;27;94335;-63
2022/07/20 09:31:00;;;;;;;12.25;9.18;;;;;;;;;;5076742;27;95904;-63
2022/07/20 09:33:28;;;;;;;12.73;9.45;;;;;;;;;;5078123;27;92457;-63
2022/07/20 09:35:56;;;;;;;15.40;9.60;;;;;;;;;;5078003;27;93278;-63
2022/07/20 09:38:33;;;;;;;13.27;9.57;;;;;;;;;;5077730;27;93598;-63
2022/07/20 09:41:00;;;;;;;14.25;8.65;;;;;;;;;;5078222;27;92450;-63
2022/07/20 09:43:31;;;;;;;13.85;9.57;;;;;;;;;;5078486;27;94340;-63
2022/07/20 09:46:08;;;;;;;12.63;8.90;;;;;;;;;;5081803;27;94474;-63
2022/07/20 09:48:45;;;;;;;12.60;9.32;;;;;;;;;;5078677;27;93069;-63
2022/07/20 09:51:18;;;;;;;14.55;8.95;;;;;;;;;;5060017;27;93696;-63
2022/07/20 09:53:44;;;;;;;10.60;8.45;;;;;;;;;;5078014;27;92654;-63
2022/07/20 09:56:13;;;;;;;12.38;9.05;;;;;;;;;;5076577;27;94765;-63
2022/07/20 09:58:39;;;;;;;12.75;8.57;;;;;;;;;;5077959;27;93783;-64
2022/07/20 10:01:05;;;;;;;11.13;8.57;;;;;;;;;;5077793;27;92379;-63
2022/07/20 10:03:32;;;;;;;10.63;8.15;;;;;;;;;;5077684;27;93988;-64
2022/07/20 10:05:58;;;;;;;12.68;8.43;;;;;;;;;;5077582;27;93431;-63
2022/07/20 10:08:25;;;;;;;10.95;7.68;;;;;;;;;;5081094;27;92438;-64
2022/07/20 10:10:51;;;;;;;12.63;8.68;;;;;;;;;;5076458;27;92496;-63
2022/07/20 10:13:18;;;;;;;9.68;8.02;;;;;;;;;;5078840;27;91695;-63
2022/07/20 10:16:04;;;;;;;13.65;8.27;;;;;;;;;;5078482;27;93676;-63
2022/07/20 10:18:31;;;;;;;13.30;8.32;;;;;;;;;;5077912;27;94161;-63
2022/07/20 10:20:57;;;;;;;12.23;8.27;;;;;;;;;;5075991;27;94792;-63
2022/07/20 10:23:24;;;;;;;12.23;7.65;;;;;;;;;;5077507;27;95340;-63
2022/07/20 10:25:50;;;;;;;10.68;7.70;;;;;;;;;;5077491;27;93895;-62
2022/07/20 10:28:22;;;;;;;9.55;7.65;;;;;;;;;;5080384;27;92421;-63
2022/07/20 10:30:56;;;;;;;11.40;8.48;;;;;;;;;;5077253;27;92618;-63
2022/07/20 10:33:23;;;;;;;13.07;8.60;;;;;;;;;;5077321;27;92414;-62
2022/07/20 10:35:50;;;;;;;10.70;7.68;;;;;;;;;;5077097;27;93474;-63
2022/07/20 10:38:20;;;;;;;9.52;7.85;;;;;;;;;;5077422;27;92729;-63
2022/07/20 10:44:25;;;;;;;11.32;7.75;;;;;;;;;;5063669;27;93522;-63
2022/07/20 10:46:52;;;;;;;9.55;7.20;;;;;;;;;;5075546;27;95738;-62
2022/07/20 10:49:18;;;;;;;11.65;7.18;;;;;;;;;;5076832;27;92439;-62
2022/07/20 10:52:04;;;;;;;9.52;7.45;;;;;;;;;;5080433;27;93203;-63
2022/07/20 10:54:31;;;;;;;9.60;7.28;;;;;;;;;;5076919;27;92890;-63
2022/07/20 10:56:58;;;;;;;8.60;7.00;;;;;;;;;;5076910;27;93499;-63
2022/07/20 10:59:24;;;;;;;12.90;7.50;;;;;;;;;;5076802;27;93678;-63
2022/07/20 11:01:51;;;;;;;7.90;7.13;;;;;;;;;;5076889;27;92657;-63
2022/07/20 11:04:19;;;;;;;11.40;7.13;;;;;;;;;;5077629;27;94605;-63
2022/07/20 11:06:45;;;;;;;10.40;7.47;;;;;;;;;;5076851;27;93535;-63
2022/07/20 11:09:12;;;;;;;11.55;6.88;;;;;;;;;;5077154;27;92405;-63
2022/07/20 11:11:41;;;;;;;9.27;6.88;;;;;;;;;;5075351;27;94751;-63
2022/07/20 11:14:09;;;;;;;11.10;6.90;;;;;;;;;;5079720;27;94006;-63
2022/07/20 11:16:36;;;;;;;8.52;6.88;;;;;;;;;;5076968;27;93614;-63
2022/07/20 11:19:03;;;;;;;11.85;6.68;;;;;;;;;;5077344;27;93467;-62
2022/07/20 11:21:40;;;;;;;9.18;6.75;;;;;;;;;;5077155;27;92403;-64
2022/07/20 11:24:27;;;;;;;8.45;6.40;;;;;;;;;;5076566;27;93234;-63
2022/07/20 11:26:54;;;;;;;9.02;6.25;;;;;;;;;;5075974;27;93486;-63
2022/07/20 11:29:21;;;;;;;9.52;7.00;;;;;;;;;;5076889;27;91674;-63
2022/07/20 11:31:48;;;;;;;10.80;6.22;;;;;;;;;;5076660;27;92753;-63
2022/07/20 11:34:14;;;;;;;6.57;5.82;;;;;;;;;;5076205;27;93658;-63
2022/07/20 11:36:40;;;;;;;8.95;6.07;;;;;;;;;;5059291;27;94967;-63
2022/07/20 11:39:08;;;;;;;7.38;6.05;;;;;;;;;;5076615;27;94652;-63
2022/07/20 11:41:41;;;;;;;10.25;6.50;;;;;;;;;;5076424;27;92471;-63
2022/07/20 11:44:13;;;;;;;8.43;6.15;;;;;;;;;;5076630;27;94478;-63
2022/07/20 11:46:43;;;;;;;10.27;6.80;;;;;;;;;;5076385;27;93437;-62
2022/07/20 11:49:11;;;;;;;6.55;5.72;;;;;;;;;;5076205;27;92419;-63
2022/07/20 11:51:55;;;;;;;7.25;5.95;;;;;;;;;;5076417;27;94496;-63
2022/07/20 11:54:25;;;;;;;10.48;6.30;;;;;;;;;;5076464;27;93038;-63
2022/07/20 11:56:52;;;;;;;6.60;5.82;;;;;;;;;;5076073;27;92465;-63
2022/07/20 11:59:19;;;;;;;7.68;5.60;;;;;;;;;;5078986;27;93594;-64
2022/07/20 12:01:47;;;;;;;8.07;5.80;;;;;;;;;;5074260;27;95062;-63
2022/07/20 12:04:14;;;;;;;6.97;5.47;;;;;;;;;;5075641;27;96844;-63
2022/07/20 12:06:41;;;;;;;7.38;5.70;;;;;;;;;;5093996;27;93419;-63
2022/07/20 12:09:07;;;;;;;6.07;5.32;;;;;;;;;;5097007;27;92393;-63
2022/07/20 12:11:34;;;;;;;8.57;5.65;;;;;;;;;;5096954;27;94158;-63
2022/07/20 12:14:01;;;;;;;6.90;5.35;;;;;;;;;;5096773;27;94507;-63
2022/07/20 12:16:38;;;;;;;7.45;5.70;;;;;;;;;;5082934;27;92500;-63
2022/07/20 12:19:04;;;;;;;7.05;5.78;;;;;;;;;;5079215;27;94032;-63
2022/07/20 12:21:40;;;;;;;6.65;5.95;;;;;;;;;;5076226;27;92396;-63
2022/07/20 12:24:07;;;;;;;6.25;5.47;;;;;;;;;;5075808;27;93494;-62
2022/07/20 12:26:35;;;;;;;7.30;5.45;;;;;;;;;;5073440;27;96505;-64
2022/07/20 12:29:20;;;;;;;6.40;5.13;;;;;;;;;;5075618;27;92424;-63
2022/07/20 12:31:56;;;;;;;6.45;5.28;;;;;;;;;;5075439;27;93148;-63
2022/07/20 12:34:23;;;;;;;6.78;5.25;;;;;;;;;;5074707;27;93472;-63
2022/07/20 12:36:50;;;;;;;5.80;5.20;;;;;;;;;;5075097;27;92819;-63
2022/07/20 12:39:36;;;;;;;6.80;5.15;;;;;;;;;;5075383;27;92503;-63
2022/07/20 12:42:11;;;;;;;5.60;5.00;;;;;;;;;;5081737;27;94512;-63
2022/07/20 12:45:00;;;;;;;7.50;5.30;;;;;;;;;;5096752;27;92880;-63
2022/07/20 12:47:28;;;;;;;7.40;4.88;;;;;;;;;;5075163;27;93525;-64
2022/07/20 12:50:14;;;;;;;5.65;4.95;;;;;;;;;;5060034;27;94018;-63
2022/07/20 12:52:40;;;;;;;5.43;4.80;;;;;;;;;;5055939;27;94778;-63
2022/07/20 12:55:07;;;;;;;5.82;4.93;;;;;;;;;;5075125;27;93608;-63
2022/07/20 12:57:33;;;;;;;5.38;4.80;;;;;;;;;;5075814;27;92411;-63
2022/07/20 12:59:59;;;;;;;5.95;4.65;;;;;;;;;;5075265;27;93767;-64
2022/07/20 13:02:26;;;;;;;5.32;4.65;;;;;;;;;;5074703;27;93568;-63
2022/07/20 13:04:52;;;;;;;8.35;4.70;;;;;;;;;;5078812;27;92497;-63
2022/07/20 13:07:18;;;;;;;5.00;4.50;;;;;;;;;;5074600;27;93434;-63
2022/07/20 13:09:45;;;;;;;5.45;4.55;;;;;;;;;;5075576;27;91736;-63
2022/07/20 13:12:11;;;;;;;5.40;4.65;;;;;;;;;;5074901;27;92338;-63
2022/07/20 13:14:38;;;;;;;4.80;4.40;;;;;;;;;;5074926;27;93499;-63
2022/07/20 13:17:05;;;;;;;7.22;4.72;;;;;;;;;;5074239;27;94813;-63
2022/07/20 13:19:31;;;;;;;5.22;4.43;;;;;;;;;;5074985;27;95455;-63
2022/07/20 13:21:57;;;;;;;5.47;4.63;;;;;;;;;;5074431;27;93553;-63
2022/07/20 13:24:24;;;;;;;5.38;4.28;;;;;;;;;;5075674;27;92526;-63
2022/07/20 13:26:51;;;;;;;5.20;4.13;;;;;;;;;;5059789;27;93207;-63
2022/07/20 13:29:17;;;;;;;5.43;4.65;;;;;;;;;;5074629;27;92490;-63
2022/07/20 13:31:43;;;;;;;5.63;4.55;;;;;;;;;;5074906;27;93753;-63
2022/07/20 13:34:17;;;;;;;4.97;4.47;;;;;;;;;;5075554;27;93869;-63
2022/07/20 13:36:43;;;;;;;6.63;4.55;;;;;;;;;;5056281;27;92496;-63
2022/07/20 13:39:10;;;;;;;5.18;4.00;;;;;;;;;;5074905;27;93236;-63
2022/07/20 13:41:37;;;;;;;5.47;4.38;;;;;;;;;;5055094;27;96850;-63
2022/07/20 13:44:04;;;;;;;5.38;4.43;;;;;;;;;;5074762;27;92485;-63
2022/07/20 13:46:30;;;;;;;5.80;4.18;;;;;;;;;;5077123;27;93187;-63
2022/07/20 13:48:58;;;;;;;5.40;3.95;;;;;;;;;;5081068;27;93414;-63
2022/07/20 13:51:24;;;;;;;9.45;4.50;;;;;;;;;;5078314;27;93171;-63
2022/07/20 13:54:10;;;;;;;5.03;4.47;;;;;;;;;;5078019;27;92502;-63
2022/07/20 13:56:37;;;;;;;5.95;4.60;;;;;;;;;;5078031;27;92434;-63
2022/07/20 13:59:03;;;;;;;5.47;4.28;;;;;;;;;;5078518;27;93290;-63
2022/07/20 14:01:42;;;;;;;3.90;3.55;;;;;;;;;;5077791;27;93521;-63
2022/07/20 14:04:16;;;;;;;4.78;4.20;;;;;;;;;;5077670;27;92448;-63
2022/07/20 14:06:43;;;;;;;4.65;4.07;;;;;;;;;;5076069;27;94855;-63
2022/07/20 14:09:09;;;;;;;4.90;3.90;;;;;;;;;;5077494;27;93478;-64
2022/07/20 14:11:36;;;;;;;4.57;4.13;;;;;;;;;;5081001;27;92355;-63
2022/07/20 14:14:04;;;;;;;4.60;4.20;;;;;;;;;;5077561;27;93561;-63
2022/07/20 14:16:32;;;;;;;4.40;3.58;;;;;;;;;;5077997;27;92341;-64
2022/07/20 14:18:58;;;;;;;4.57;4.03;;;;;;;;;;5077554;27;93742;-63
2022/07/20 14:21:24;;;;;;;5.30;3.78;;;;;;;;;;5077381;27;93507;-63
2022/07/20 14:23:51;;;;;;;6.68;4.25;;;;;;;;;;5077831;27;91650;-63
2022/07/20 14:26:18;;;;;;;4.70;3.58;;;;;;;;;;5078187;27;93000;-63
2022/07/20 14:28:45;;;;;;;4.50;3.78;;;;;;;;;;5059370;27;93457;-63
2022/07/20 14:31:12;;;;;;;5.10;4.00;;;;;;;;;;5079169;27;94839;-63
2022/07/20 14:33:38;;;;;;;5.10;3.85;;;;;;;;;;5076966;27;93485;-63
2022/07/20 14:36:05;;;;;;;4.63;3.63;;;;;;;;;;5077113;27;92658;-63
2022/07/20 14:38:31;;;;;;;4.20;3.80;;;;;;;;;;5077008;27;93081;-63
2022/07/20 14:41:00;;;;;;;4.30;3.83;;;;;;;;;;5059768;27;93380;-63
2022/07/20 14:43:34;;;;;;;4.47;4.07;;;;;;;;;;5077577;27;92546;-63